In Rescue
 
Open Full Screen Window  High Contrast Mode
May 25, 2022 8:55 PM CDT
Present Weather: Light Rain
Weather Information
Wind Direction
  ---
Wind Speed
  00 kt (0 mph)
Wind Gust
  00 kt (0 mph)
Altimeter
29.98 in
Visibility
10 SM
Temperature
08° C
46° F
Dewpoint
08° C
46° F
Humidity
100%
1hr Rain Fall
00.01 in.
24hr Rain Fall
00.01 in.
Sky Condition
Missing
VFR

METAR KORB 260155Z AUTO 00000KT 10SM -RA 08/08 A2998 RMK AO2 P0001

FAA Disclaimer: The data displayed is for advisory purposes only and is not to be used for flight planning or operations.
Missing Cloud Data